Ramsar, Iran
Current Conditions -  °F | °C
As of 11:00 AM on Thursday 18 Dec 2014 (Local Time) from OINR Reporting Station
Few Clouds Few Clouds  
Wind Chill: 54°   Ceiling: Unl
Heat Index: 54°   Visibility: 6mi
Dew Point: 43°   Wind: 7mph
Humidity: 67%   Direction: 110°ESE
Pressure: 30.15"   Gusts: NA
Location:  36.9°N, 50.67°E
Report Text: OINR 180800Z 11006KT 9999 FEW025 12/06 Q1021
Loading
Personal Weather Stations






























Interactive Weather Map New forecast layout! Learn more

10-Day Weather Forecast

Advertisements
Track Severe Weather on mobile